createdAt,value
2022-08-21T00:09:52.562Z,14.77
2022-08-21T00:20:22.563Z,14.69
2022-08-21T00:31:01.897Z,14.61
2022-08-21T00:52:18.574Z,14.61
2022-08-21T01:02:50.441Z,14.56
2022-08-21T01:13:13.829Z,14.37
2022-08-21T01:23:17.255Z,14.27
2022-08-21T01:33:23.447Z,14.21
2022-08-21T01:43:35.619Z,14.18
2022-08-21T01:53:42.844Z,14.14
2022-08-21T02:03:45.205Z,14.17
2022-08-21T02:24:38.514Z,14.21
2022-08-21T02:55:44.320Z,14.01
2022-08-21T03:16:18.782Z,13.90
2022-08-21T03:26:22.595Z,13.78
2022-08-21T03:36:26.018Z,13.65
2022-08-21T03:46:28.418Z,13.57
2022-08-21T03:56:31.296Z,13.50
2022-08-21T04:06:37.749Z,13.43
2022-08-21T04:16:40.422Z,13.33
2022-08-21T04:26:42.708Z,13.28
2022-08-21T04:36:45.074Z,13.35
2022-08-21T04:46:47.279Z,13.28
2022-08-21T04:57:00.721Z,13.24
2022-08-21T05:07:07.342Z,13.32
2022-08-21T05:17:11.023Z,13.45
2022-08-21T05:27:13.378Z,13.56
2022-08-21T05:37:20.101Z,13.68
2022-08-21T05:47:22.319Z,13.88
2022-08-21T05:57:24.633Z,14.13
2022-08-21T06:07:26.934Z,14.45
2022-08-21T06:17:29.340Z,14.81
2022-08-21T06:27:31.604Z,15.21
2022-08-21T06:37:34.555Z,15.66
2022-08-21T06:47:37.030Z,15.81
2022-08-21T06:57:39.716Z,15.69
2022-08-21T07:07:42.188Z,15.69
2022-08-21T07:17:45.078Z,15.62
2022-08-21T07:27:47.540Z,15.96
2022-08-21T07:37:50.484Z,16.48
2022-08-21T07:47:57.329Z,17.40
2022-08-21T07:58:00.771Z,18.14
2022-08-21T08:08:03.642Z,18.77
2022-08-21T08:18:07.049Z,19.30
2022-08-21T08:28:37.212Z,19.88
2022-08-21T08:38:47.073Z,20.39
2022-08-21T08:49:05.092Z,20.39
2022-08-21T08:59:46.099Z,20.62
2022-08-21T09:10:19.597Z,21.06
2022-08-21T09:21:05.319Z,21.26
2022-08-21T09:31:20.041Z,21.59
2022-08-21T09:41:30.424Z,21.94
2022-08-21T09:51:38.210Z,22.46
2022-08-21T10:01:46.484Z,22.78
2022-08-21T10:12:24.542Z,23.07
2022-08-21T10:22:52.126Z,23.32
2022-08-21T10:33:20.777Z,23.89
2022-08-21T10:43:53.863Z,24.30
2022-08-21T10:53:56.322Z,24.46
2022-08-21T11:04:18.374Z,25.07
2022-08-21T11:14:36.387Z,25.25
2022-08-21T11:25:36.654Z,26.06
2022-08-21T11:35:58.643Z,26.39
2022-08-21T11:46:05.333Z,25.06
2022-08-21T11:56:23.932Z,23.97
2022-08-21T12:06:33.445Z,25.37
2022-08-21T12:16:39.303Z,26.10
2022-08-21T12:27:26.818Z,26.73
2022-08-21T12:37:41.433Z,27.40
2022-08-21T12:47:59.478Z,27.49
2022-08-21T12:58:02.816Z,27.50
2022-08-21T13:08:08.292Z,27.64
2022-08-21T13:18:24.104Z,28.61
2022-08-21T13:28:36.088Z,29.20
2022-08-21T13:38:42.634Z,29.39
2022-08-21T13:48:45.329Z,29.58
2022-08-21T13:58:48.990Z,29.83
2022-08-21T14:09:13.737Z,29.81
2022-08-21T14:19:23.353Z,30.07
2022-08-21T14:29:32.660Z,30.35
2022-08-21T14:39:37.134Z,30.68
2022-08-21T14:49:41.149Z,30.58
2022-08-21T14:59:44.297Z,29.66
2022-08-21T15:09:47.063Z,28.48
2022-08-21T15:19:50.154Z,27.94
2022-08-21T15:29:54.750Z,27.47
2022-08-21T15:39:57.533Z,26.78
2022-08-21T15:50:00.320Z,26.11
2022-08-21T16:00:13.341Z,25.68
2022-08-21T16:10:18.736Z,25.37
2022-08-21T16:20:29.523Z,25.20
2022-08-21T16:30:33.048Z,24.73
2022-08-21T16:40:37.253Z,24.03
2022-08-21T16:50:40.948Z,23.64
2022-08-21T17:00:44.199Z,23.51
2022-08-21T17:10:49.408Z,22.68
2022-08-21T17:20:53.764Z,21.97
2022-08-21T17:31:01.645Z,21.44
2022-08-21T17:41:10.691Z,21.01
2022-08-21T17:51:13.789Z,20.63
2022-08-21T18:01:16.828Z,20.35
2022-08-21T18:11:24.168Z,20.12
2022-08-21T18:21:28.246Z,19.91
2022-08-21T18:31:33.385Z,19.63
2022-08-21T18:41:36.121Z,19.36
2022-08-21T18:51:41.655Z,19.02
2022-08-21T19:01:48.201Z,18.69
2022-08-21T19:11:51.918Z,18.32
2022-08-21T19:21:54.528Z,18.00
2022-08-21T19:31:59.277Z,17.69
2022-08-21T19:42:01.736Z,17.39
2022-08-21T19:52:11.877Z,17.09
2022-08-21T20:02:20.316Z,16.87
2022-08-21T20:12:23.608Z,16.61
2022-08-21T20:32:53.026Z,16.30
2022-08-21T20:43:02.956Z,16.23
2022-08-21T20:53:25.479Z,16.24
2022-08-21T21:03:57.693Z,16.23
2022-08-21T21:14:25.289Z,16.23
2022-08-21T21:25:01.187Z,16.25
2022-08-21T21:35:07.258Z,16.31
2022-08-21T21:45:42.919Z,16.40
2022-08-21T21:56:29.138Z,16.45
2022-08-21T22:07:15.702Z,16.53
2022-08-21T22:17:41.118Z,16.58
2022-08-21T22:27:48.149Z,16.58
2022-08-21T22:37:58.768Z,16.44
2022-08-21T22:48:28.792Z,16.30
2022-08-21T22:59:02.982Z,16.20
2022-08-21T23:09:35.231Z,16.12
2022-08-21T23:20:20.633Z,16.12
2022-08-21T23:30:52.872Z,16.17
2022-08-21T23:41:34.464Z,16.11
2022-08-21T23:52:00.953Z,16.04
